Time;durP1;ratioP1;P1;durP2;ratioP2;P2;SDS_P1;SDS_P2;PMS_P1;PMS_P2;Temp;Humidity;BMP_temperature;BMP_pressure;BME280_temperature;BME280_humidity;BME280_pressure;Samples;Min_cycle;Max_cycle;Signal;HPM_P1;HPM_P2
2023/04/25 00:00:18;;;;;;;8.43;3.80;;;;;;;7.55;100.00;-18231.25;4970213;28;20455;-83
2023/04/25 00:02:43;;;;;;;10.00;4.72;;;;;;;7.35;100.00;-18226.00;4966160;28;20490;-82
2023/04/25 00:05:08;;;;;;;12.80;4.65;;;;;;;7.50;100.00;-18229.88;4969865;28;20065;-83
2023/04/25 00:07:34;;;;;;;11.73;5.18;;;;;;;7.43;100.00;-18228.06;4972147;28;20085;-83
2023/04/25 00:10:00;;;;;;;10.77;5.30;;;;;;;7.39;100.00;-18227.13;4965400;28;20041;-83
2023/04/25 00:12:28;;;;;;;12.35;5.63;;;;;;;7.29;100.00;-18224.34;4972645;28;20050;-83
2023/04/25 00:14:53;;;;;;;16.60;5.93;;;;;;;7.29;100.00;-18224.22;4974967;28;20062;-83
2023/04/25 00:17:19;;;;;;;15.48;6.85;;;;;;;7.30;100.00;-18224.63;4971372;28;20065;-82
2023/04/25 00:19:46;;;;;;;15.90;5.95;;;;;;;7.30;100.00;-18224.50;4964902;28;20039;-82
2023/04/25 00:22:11;;;;;;;16.33;6.47;;;;;;;7.33;100.00;-18225.31;4971498;28;20124;-83
2023/04/25 00:24:37;;;;;;;17.90;6.32;;;;;;;7.34;100.00;-18225.59;4971046;28;20046;-82
2023/04/25 00:27:02;;;;;;;16.73;6.70;;;;;;;7.28;100.00;-18224.09;4967471;28;20133;-82
2023/04/25 00:29:28;;;;;;;18.00;6.22;;;;;;;7.29;100.00;-18224.34;4969221;28;20122;-82
2023/04/25 00:31:53;;;;;;;17.65;6.32;;;;;;;7.31;100.00;-18224.91;4967334;28;20659;-83
2023/04/25 00:34:19;;;;;;;19.45;6.60;;;;;;;7.41;100.00;-18227.66;4969315;28;20047;-82
2023/04/25 00:36:44;;;;;;;17.70;6.65;;;;;;;7.44;100.00;-18228.50;4966314;28;20153;-83
2023/04/25 00:39:10;;;;;;;19.55;6.60;;;;;;;7.45;100.00;-18228.75;4969796;28;20042;-82
2023/04/25 00:41:35;;;;;;;25.33;7.97;;;;;;;7.46;100.00;-18228.91;4967338;28;20051;-83
2023/04/25 00:44:04;;;;;;;25.63;7.00;;;;;;;7.34;100.00;-18225.59;4986726;28;20067;-83
2023/04/25 00:46:30;;;;;;;26.30;8.10;;;;;;;7.32;100.00;-18225.19;4973952;28;20042;-83
2023/04/25 00:48:56;;;;;;;27.48;7.68;;;;;;;7.26;100.00;-18223.41;4969209;28;20494;-83
2023/04/25 00:51:21;;;;;;;27.63;8.30;;;;;;;7.24;100.00;-18222.97;4966490;28;20105;-83
2023/04/25 00:53:49;;;;;;;17.88;7.03;;;;;;;7.21;100.00;-18222.28;4967893;28;20513;-83
2023/04/25 00:56:15;;;;;;;24.80;7.53;;;;;;;7.17;100.00;-18221.06;4969142;28;20050;-82
2023/04/25 00:58:42;;;;;;;29.10;6.85;;;;;;;7.14;100.00;-18220.22;4984889;28;20039;-83
2023/04/25 01:01:08;;;;;;;25.20;7.57;;;;;;;7.12;100.00;-18219.66;4967288;28;20133;-83
2023/04/25 01:03:35;;;;;;;22.90;6.93;;;;;;;7.07;100.00;-18218.28;4972218;28;20125;-82
2023/04/25 01:06:02;;;;;;;24.40;7.40;;;;;;;7.04;100.00;-18217.47;4970091;28;20051;-82
2023/04/25 01:08:28;;;;;;;23.13;7.60;;;;;;;7.00;100.00;-18216.50;4965536;28;20142;-83
2023/04/25 01:10:53;;;;;;;28.30;8.02;;;;;;;6.97;100.00;-18215.81;4974758;28;20129;-82
2023/04/25 01:13:19;;;;;;;19.77;7.15;;;;;;;7.02;100.00;-18217.06;4965842;28;20692;-83
2023/04/25 01:15:45;;;;;;;33.20;7.30;;;;;;;7.02;100.00;-18217.06;4968053;28;20072;-83
2023/04/25 01:18:10;;;;;;;20.73;7.55;;;;;;;7.01;100.00;-18216.91;4971297;28;20122;-83
2023/04/25 01:20:37;;;;;;;23.08;7.75;;;;;;;6.98;100.00;-18215.94;4966781;28;20093;-83
2023/04/25 01:23:03;;;;;;;25.35;7.57;;;;;;;6.94;100.00;-18215.00;4973693;28;20034;-83
2023/04/25 01:25:30;;;;;;;19.42;6.15;;;;;;;6.94;100.00;-18215.00;4967297;28;20053;-82
2023/04/25 01:27:57;;;;;;;26.42;6.97;;;;;;;6.94;100.00;-18215.00;4969778;28;20046;-83
2023/04/25 01:30:23;;;;;;;23.20;7.90;;;;;;;7.05;100.00;-18217.88;4969966;28;20181;-83
2023/04/25 01:32:49;;;;;;;26.63;6.47;;;;;;;6.98;100.00;-18216.09;4964092;28;20134;-82
2023/04/25 01:35:14;;;;;;;21.20;6.97;;;;;;;6.97;100.00;-18215.81;4966535;28;20407;-82
2023/04/25 01:37:42;;;;;;;17.60;6.47;;;;;;;7.00;100.00;-18216.63;4964878;28;20047;-83
2023/04/25 01:40:09;;;;;;;23.90;7.53;;;;;;;6.94;100.00;-18215.00;4966781;28;20125;-82
2023/04/25 01:42:37;;;;;;;24.17;7.10;;;;;;;6.89;100.00;-18213.59;4968063;28;20375;-83
2023/04/25 01:45:03;;;;;;;20.90;6.85;;;;;;;6.88;100.00;-18213.34;4962606;28;20569;-83
2023/04/25 01:47:28;;;;;;;17.08;6.15;;;;;;;6.87;100.00;-18212.91;4974006;28;20129;-83
2023/04/25 01:49:54;;;;;;;27.20;7.13;;;;;;;6.87;100.00;-18213.06;4975948;28;20066;-83
2023/04/25 01:52:20;;;;;;;18.02;6.18;;;;;;;6.82;100.00;-18211.53;4969412;28;20055;-83
2023/04/25 01:54:46;;;;;;;27.00;6.93;;;;;;;6.85;100.00;-18212.38;4971899;28;20050;-83
2023/04/25 01:57:12;;;;;;;22.10;6.78;;;;;;;6.84;100.00;-18212.22;4969501;28;20143;-83
2023/04/25 01:59:37;;;;;;;27.67;7.47;;;;;;;7.13;100.00;-18219.94;4971042;28;20070;-83
2023/04/25 02:02:03;;;;;;;24.42;6.60;;;;;;;6.94;100.00;-18215.00;4986087;28;20077;-83
2023/04/25 02:04:32;;;;;;;21.80;5.82;;;;;;;6.89;100.00;-18213.59;4969952;28;20054;-83
2023/04/25 02:06:57;;;;;;;23.17;6.28;;;;;;;6.85;100.00;-18212.50;4971982;28;20069;-83
2023/04/25 02:09:23;;;;;;;20.92;6.38;;;;;;;6.76;100.00;-18210.16;4973083;28;20558;-83
2023/04/25 02:11:48;;;;;;;22.80;6.43;;;;;;;6.68;100.00;-18207.97;4967711;28;20043;-83
2023/04/25 02:14:14;;;;;;;24.95;6.78;;;;;;;6.84;100.00;-18212.09;4968816;28;20121;-83
2023/04/25 02:16:39;;;;;;;21.33;5.72;;;;;;;6.86;100.00;-18212.78;4969765;28;20126;-83
2023/04/25 02:19:05;;;;;;;22.92;6.20;;;;;;;6.86;100.00;-18212.78;4971320;28;20038;-83
2023/04/25 02:21:31;;;;;;;20.15;6.97;;;;;;;6.84;100.00;-18212.09;4969736;28;20054;-83
2023/04/25 02:23:56;;;;;;;23.73;6.35;;;;;;;6.84;100.00;-18212.22;4970118;28;20109;-83
2023/04/25 02:26:23;;;;;;;22.83;5.53;;;;;;;6.81;100.00;-18211.41;4969274;28;20047;-83
2023/04/25 02:28:49;;;;;;;17.20;5.10;;;;;;;6.84;100.00;-18212.22;4969478;28;20047;-83
2023/04/25 02:31:15;;;;;;;20.10;4.63;;;;;;;6.89;100.00;-18213.59;4974233;28;20054;-82
2023/04/25 02:33:40;;;;;;;17.58;5.88;;;;;;;6.87;100.00;-18212.91;4967068;28;20058;-83
2023/04/25 02:36:06;;;;;;;24.48;5.88;;;;;;;6.87;100.00;-18213.06;4968927;28;20050;-83
2023/04/25 02:38:31;;;;;;;15.95;5.65;;;;;;;6.84;100.00;-18212.22;4972313;28;20049;-83
2023/04/25 02:40:57;;;;;;;18.30;4.60;;;;;;;6.77;100.00;-18210.31;4972966;28;20426;-82
2023/04/25 02:43:22;;;;;;;17.17;5.57;;;;;;;6.87;100.00;-18212.91;4971763;28;20399;-82
2023/04/25 02:45:47;;;;;;;21.13;5.53;;;;;;;6.90;100.00;-18213.88;4970050;28;20438;-83
2023/04/25 02:48:13;;;;;;;21.63;5.75;;;;;;;6.72;100.00;-18208.91;4968643;28;20063;-83
2023/04/25 02:50:38;;;;;;;17.92;5.60;;;;;;;6.84;100.00;-18212.22;4987339;28;20051;-82
2023/04/25 02:53:03;;;;;;;19.55;5.45;;;;;;;6.71;100.00;-18208.78;4971761;28;20038;-82
2023/04/25 02:55:29;;;;;;;22.83;5.30;;;;;;;6.78;100.00;-18210.56;4971260;28;20383;-83
2023/04/25 02:57:55;;;;;;;20.60;6.50;;;;;;;6.87;100.00;-18213.06;4970570;28;20077;-83
2023/04/25 03:00:22;;;;;;;21.05;6.43;;;;;;;6.87;100.00;-18213.06;4974341;28;20077;-83
2023/04/25 03:02:47;;;;;;;19.67;5.97;;;;;;;6.82;100.00;-18211.69;4975585;28;20368;-83
2023/04/25 03:05:12;;;;;;;15.35;6.28;;;;;;;6.68;100.00;-18207.97;4968731;28;20062;-83
2023/04/25 03:07:39;;;;;;;20.52;4.70;;;;;;;6.66;100.00;-18207.41;4970337;28;20051;-83
2023/04/25 03:10:07;;;;;;;17.48;4.47;;;;;;;6.60;100.00;-18205.63;4973665;28;20038;-83
2023/04/25 03:12:33;;;;;;;14.00;4.45;;;;;;;6.63;100.00;-18206.44;4977318;28;20522;-83
2023/04/25 03:14:58;;;;;;;18.77;5.85;;;;;;;6.72;100.00;-18209.06;4976868;28;20046;-83
2023/04/25 03:17:23;;;;;;;13.38;4.80;;;;;;;6.62;100.00;-18206.16;4987040;28;20189;-83
2023/04/25 03:19:49;;;;;;;13.63;5.35;;;;;;;6.80;100.00;-18211.00;4974117;28;20073;-83
2023/04/25 03:22:14;;;;;;;17.98;5.82;;;;;;;6.77;100.00;-18210.31;4972635;28;20490;-83
2023/04/25 03:24:40;;;;;;;17.35;5.47;;;;;;;6.66;100.00;-18207.28;4971897;28;20093;-84
2023/04/25 03:27:05;;;;;;;12.20;5.15;;;;;;;6.59;100.00;-18205.34;4972218;28;20728;-83
2023/04/25 03:29:30;;;;;;;17.35;6.00;;;;;;;6.51;100.00;-18203.41;4970269;28;20046;-83
2023/04/25 03:31:56;;;;;;;16.00;5.47;;;;;;;6.54;100.00;-18204.22;4974364;28;20133;-84
2023/04/25 03:34:21;;;;;;;13.63;5.05;;;;;;;6.59;100.00;-18205.47;4980530;28;20186;-83
2023/04/25 03:36:47;;;;;;;17.00;5.75;;;;;;;6.51;100.00;-18203.41;4968431;28;20046;-84
2023/04/25 03:39:12;;;;;;;17.13;4.65;;;;;;;6.62;100.00;-18206.31;4983002;28;20050;-84
2023/04/25 03:41:37;;;;;;;14.68;5.22;;;;;;;6.62;100.00;-18206.16;4970176;28;20046;-83
2023/04/25 03:44:03;;;;;;;13.70;6.05;;;;;;;6.53;100.00;-18203.81;4990251;28;20082;-83
2023/04/25 03:46:28;;;;;;;18.85;5.82;;;;;;;6.57;100.00;-18204.78;4973131;28;20058;-83
2023/04/25 03:48:54;;;;;;;19.20;5.88;;;;;;;6.52;100.00;-18203.69;4969843;28;20068;-83
2023/04/25 03:51:19;;;;;;;16.00;5.75;;;;;;;6.40;100.00;-18200.38;4972584;28;20125;-83
2023/04/25 03:53:45;;;;;;;13.48;4.75;;;;;;;6.43;100.00;-18201.06;4972632;28;20474;-83
2023/04/25 03:56:10;;;;;;;18.77;6.70;;;;;;;6.45;100.00;-18201.75;4974612;28;20057;-84
2023/04/25 03:58:35;;;;;;;12.18;5.10;;;;;;;6.39;100.00;-18200.09;4977833;28;20047;-83
2023/04/25 04:01:03;;;;;;;16.02;5.50;;;;;;;6.42;100.00;-18200.94;4973844;28;20051;-83
2023/04/25 04:03:28;;;;;;;17.15;5.47;;;;;;;6.27;100.00;-18196.78;4972093;28;20079;-83
2023/04/25 04:05:54;;;;;;;18.95;6.45;;;;;;;6.35;100.00;-18198.84;4971620;28;20043;-83
2023/04/25 04:08:19;;;;;;;18.33;6.20;;;;;;;6.19;100.00;-18194.59;4969405;28;20050;-84
2023/04/25 04:10:45;;;;;;;16.27;6.05;;;;;;;6.27;100.00;-18196.78;4982706;28;20049;-85
2023/04/25 04:13:10;;;;;;;14.82;6.03;;;;;;;6.19;100.00;-18194.72;4982677;28;20031;-84
2023/04/25 04:15:35;;;;;;;17.48;5.63;;;;;;;6.19;100.00;-18194.59;4976261;28;20039;-84
2023/04/25 04:18:02;;;;;;;13.93;5.13;;;;;;;6.09;100.00;-18191.97;4979112;28;20049;-85
2023/04/25 04:20:30;;;;;;;17.83;6.50;;;;;;;6.16;100.00;-18193.75;4980870;28;20050;-86
2023/04/25 04:22:55;;;;;;;17.60;6.10;;;;;;;6.18;100.00;-18194.44;4976476;28;21331;-85
2023/04/25 04:25:20;;;;;;;15.55;6.25;;;;;;;6.31;100.00;-18197.91;4973802;28;20047;-85
2023/04/25 04:27:46;;;;;;;17.10;6.05;;;;;;;6.27;100.00;-18196.94;4971256;28;20058;-85
2023/04/25 04:30:12;;;;;;;13.98;5.28;;;;;;;6.17;100.00;-18194.03;4968445;28;20046;-85
2023/04/25 04:32:38;;;;;;;17.08;6.85;;;;;;;6.14;100.00;-18193.34;4973591;28;20537;-85
2023/04/25 04:35:04;;;;;;;16.48;5.93;;;;;;;6.22;100.00;-18195.41;4978846;28;20088;-84
2023/04/25 04:37:30;;;;;;;14.27;5.90;;;;;;;6.17;100.00;-18194.16;4969552;28;20039;-85
2023/04/25 04:39:55;;;;;;;21.33;6.03;;;;;;;6.17;100.00;-18194.03;4966196;28;20102;-85
2023/04/25 04:42:21;;;;;;;17.10;5.88;;;;;;;6.16;100.00;-18193.75;4973427;28;20494;-85
2023/04/25 04:44:47;;;;;;;18.80;6.18;;;;;;;6.13;100.00;-18192.94;4969729;28;20030;-84
2023/04/25 04:47:13;;;;;;;14.93;6.05;;;;;;;6.03;100.00;-18190.31;4970462;28;20542;-83
2023/04/25 04:49:39;;;;;;;13.60;6.60;;;;;;;6.15;100.00;-18193.63;4969951;28;20117;-86
2023/04/25 04:52:05;;;;;;;18.63;7.43;;;;;;;6.22;100.00;-18195.53;4973743;28;20175;-86
2023/04/25 04:54:30;;;;;;;16.13;6.53;;;;;;;6.24;100.00;-18195.97;4986895;28;20050;-85
2023/04/25 04:56:56;;;;;;;17.38;6.60;;;;;;;6.26;100.00;-18196.50;4964345;28;20047;-85
2023/04/25 04:59:21;;;;;;;18.42;6.10;;;;;;;6.27;100.00;-18196.78;4965403;28;20051;-86
2023/04/25 05:01:46;;;;;;;15.65;6.50;;;;;;;6.18;100.00;-18194.31;4967352;28;20039;-83
2023/04/25 05:04:12;;;;;;;11.55;4.70;;;;;;;6.24;100.00;-18196.09;4966207;28;20466;-83
2023/04/25 05:06:37;;;;;;;22.20;6.40;;;;;;;6.22;100.00;-18195.41;4969280;28;20039;-84
2023/04/25 05:09:03;;;;;;;20.63;6.85;;;;;;;6.23;100.00;-18195.69;4964877;28;20088;-84
2023/04/25 05:11:29;;;;;;;15.23;5.70;;;;;;;6.28;100.00;-18197.06;4965325;28;20089;-83
2023/04/25 05:13:54;;;;;;;21.17;7.07;;;;;;;6.32;100.00;-18198.16;4969101;28;20143;-83
2023/04/25 05:16:20;;;;;;;17.33;6.88;;;;;;;6.43;100.00;-18201.06;4970583;28;20038;-84
2023/04/25 05:18:46;;;;;;;21.30;6.60;;;;;;;6.21;100.00;-18195.28;4966718;28;21076;-84
2023/04/25 05:21:11;;;;;;;19.23;7.78;;;;;;;6.29;100.00;-18197.47;4987181;28;20043;-83
2023/04/25 05:23:36;;;;;;;19.55;6.57;;;;;;;6.14;100.00;-18193.19;4985989;28;20043;-83
2023/04/25 05:26:02;;;;;;;21.45;6.40;;;;;;;6.22;100.00;-18195.41;4968819;28;20150;-84
2023/04/25 05:28:27;;;;;;;18.27;6.80;;;;;;;6.22;100.00;-18195.41;4968206;28;20055;-84
2023/04/25 05:30:52;;;;;;;21.33;6.20;;;;;;;6.10;100.00;-18192.25;4970219;28;20054;-83
2023/04/25 05:33:18;;;;;;;24.27;7.20;;;;;;;6.05;100.00;-18190.84;4971082;28;20536;-83
2023/04/25 05:35:44;;;;;;;17.23;6.80;;;;;;;6.09;100.00;-18192.09;4968999;28;20046;-84
2023/04/25 05:38:10;;;;;;;16.30;7.00;;;;;;;6.13;100.00;-18193.06;4970678;28;20050;-84
2023/04/25 05:40:35;;;;;;;17.65;6.47;;;;;;;6.12;100.00;-18192.66;4972408;28;20049;-84
2023/04/25 05:43:01;;;;;;;18.42;7.03;;;;;;;6.09;100.00;-18192.09;4983839;28;20070;-84
2023/04/25 05:45:26;;;;;;;23.05;7.22;;;;;;;6.11;100.00;-18192.50;4970362;28;20043;-86
2023/04/25 05:47:51;;;;;;;19.35;6.30;;;;;;;6.13;100.00;-18193.06;4968770;28;20137;-84
2023/04/25 05:50:17;;;;;;;14.65;5.80;;;;;;;6.16;100.00;-18193.91;4970134;28;20093;-84
2023/04/25 05:52:42;;;;;;;18.17;7.85;;;;;;;6.29;100.00;-18197.47;4974714;28;23361;-83
2023/04/25 05:55:08;;;;;;;23.20;7.47;;;;;;;6.31;100.00;-18197.91;4978434;28;20035;-83
2023/04/25 05:57:33;;;;;;;19.55;6.72;;;;;;;6.25;100.00;-18196.25;4981646;28;20038;-83
2023/04/25 05:59:59;;;;;;;22.58;6.18;;;;;;;6.39;100.00;-18200.09;4981194;28;20220;-83
2023/04/25 06:02:25;;;;;;;16.00;5.95;;;;;;;6.24;100.00;-18196.09;4979035;28;20137;-83
2023/04/25 06:04:51;;;;;;;19.60;7.38;;;;;;;6.31;100.00;-18197.91;4982456;28;20047;-83
2023/04/25 06:07:17;;;;;;;18.15;6.82;;;;;;;6.43;100.00;-18201.06;4980186;28;20051;-83
2023/04/25 06:09:43;;;;;;;20.10;7.43;;;;;;;6.40;100.00;-18200.25;4990011;28;20479;-83
2023/04/25 06:12:08;;;;;;;19.63;7.32;;;;;;;6.36;100.00;-18199.28;4978922;28;20109;-83
2023/04/25 06:14:34;;;;;;;18.05;6.25;;;;;;;6.36;100.00;-18199.28;4980492;28;20106;-83
2023/04/25 06:17:06;;;;;;;15.25;5.55;;;;;;;6.44;100.00;-18201.47;4981454;28;20050;-83
2023/04/25 06:19:31;;;;;;;18.45;5.72;;;;;;;6.43;100.00;-18201.19;4997228;28;20418;-83
2023/04/25 06:21:56;;;;;;;13.45;5.15;;;;;;;6.55;100.00;-18204.38;4982651;28;20061;-83
2023/04/25 06:24:22;;;;;;;17.23;4.75;;;;;;;6.43;100.00;-18201.19;4979269;28;20051;-82
2023/04/25 06:26:47;;;;;;;15.05;5.10;;;;;;;6.58;100.00;-18205.19;4972674;28;20049;-83
2023/04/25 06:29:12;;;;;;;15.48;4.65;;;;;;;6.63;100.00;-18206.56;4970415;28;20127;-82
2023/04/25 06:31:38;;;;;;;15.77;4.93;;;;;;;6.67;100.00;-18207.53;4971794;28;20046;-83
2023/04/25 06:34:03;;;;;;;9.93;3.85;;;;;;;6.71;100.00;-18208.66;4983173;28;20053;-83
2023/04/25 06:36:28;;;;;;;10.45;4.70;;;;;;;6.77;100.00;-18210.31;4970048;28;20147;-83
2023/04/25 06:38:56;;;;;;;17.02;5.35;;;;;;;6.75;100.00;-18209.88;4969787;28;20041;-83
2023/04/25 06:41:22;;;;;;;12.07;3.63;;;;;;;6.77;100.00;-18210.31;4984246;28;20031;-83
2023/04/25 06:43:47;;;;;;;16.15;4.63;;;;;;;6.75;100.00;-18209.75;4972367;28;20049;-83
2023/04/25 06:46:13;;;;;;;11.45;4.47;;;;;;;6.78;100.00;-18210.72;4971772;28;20047;-83
2023/04/25 06:48:38;;;;;;;13.85;4.03;;;;;;;6.69;100.00;-18208.22;4987268;28;20043;-82
2023/04/25 06:51:03;;;;;;;13.77;4.10;;;;;;;6.81;100.00;-18211.41;4972186;28;20078;-83
2023/04/25 06:53:29;;;;;;;13.48;4.25;;;;;;;6.71;100.00;-18208.66;4971869;28;20479;-83
2023/04/25 06:55:54;;;;;;;13.63;3.90;;;;;;;6.60;100.00;-18205.75;4972525;28;20058;-83
2023/04/25 06:58:19;;;;;;;12.88;4.00;;;;;;;6.65;100.00;-18207.13;4971723;28;20122;-83
2023/04/25 07:00:45;;;;;;;13.27;4.18;;;;;;;6.73;100.00;-18209.34;4973437;28;20043;-83
2023/04/25 07:03:10;;;;;;;10.13;3.72;;;;;;;6.74;100.00;-18209.47;4973327;28;20685;-83
2023/04/25 07:05:35;;;;;;;10.55;3.85;;;;;;;6.74;100.00;-18209.59;4988938;28;20047;-83
2023/04/25 07:08:01;;;;;;;12.30;4.45;;;;;;;6.73;100.00;-18209.19;4980006;28;20046;-83
2023/04/25 07:10:26;;;;;;;10.43;3.13;;;;;;;6.77;100.00;-18210.44;4992070;28;20102;-83
2023/04/25 07:12:52;;;;;;;8.60;3.50;;;;;;;6.80;100.00;-18211.13;4972120;28;20074;-83
2023/04/25 07:15:17;;;;;;;13.48;3.85;;;;;;;6.81;100.00;-18211.41;4973562;28;20043;-83
2023/04/25 07:17:42;;;;;;;11.73;3.65;;;;;;;6.85;100.00;-18212.50;4972858;28;20042;-83
2023/04/25 07:20:09;;;;;;;15.27;4.65;;;;;;;6.86;100.00;-18212.78;4972028;28;20042;-83
2023/04/25 07:22:35;;;;;;;12.88;4.00;;;;;;;6.85;100.00;-18212.50;4973550;28;20050;-83
2023/04/25 07:25:00;;;;;;;15.35;4.10;;;;;;;6.86;100.00;-18212.66;4972989;28;20398;-83
2023/04/25 07:27:25;;;;;;;14.45;4.00;;;;;;;6.99;100.00;-18216.38;4972825;28;20039;-83
2023/04/25 07:29:51;;;;;;;9.40;3.50;;;;;;;7.02;100.00;-18217.06;4973582;28;20031;-83
2023/04/25 07:32:16;;;;;;;16.00;4.18;;;;;;;7.09;100.00;-18218.84;4986921;28;20050;-83
2023/04/25 07:34:41;;;;;;;12.65;4.05;;;;;;;7.24;100.00;-18222.97;4973536;28;20105;-83
2023/04/25 07:37:07;;;;;;;11.93;3.85;;;;;;;7.35;100.00;-18225.88;4972757;28;20039;-83
2023/04/25 07:39:32;;;;;;;11.02;2.90;;;;;;;7.45;100.00;-18228.75;4972886;28;20039;-83
2023/04/25 07:42:01;;;;;;;12.88;3.20;;;;;;;7.78;100.00;-18237.59;4971963;28;20508;-83
2023/04/25 07:44:27;;;;;;;11.07;3.10;;;;;;;7.87;100.00;-18240.06;4981926;28;20051;-84
2023/04/25 07:46:52;;;;;;;12.52;2.67;;;;;;;7.72;100.00;-18235.78;4999920;28;20410;-84
2023/04/25 07:49:18;;;;;;;7.53;2.70;;;;;;;7.67;100.00;-18234.56;4999380;28;20126;-84
2023/04/25 07:51:43;;;;;;;11.63;2.38;;;;;;;7.56;100.00;-18231.53;4986564;28;20046;-84
2023/04/25 07:54:09;;;;;;;10.90;2.65;;;;;;;7.62;100.00;-18233.16;4984558;28;20065;-84
2023/04/25 07:56:35;;;;;;;10.45;2.50;;;;;;;7.79;100.00;-18237.72;4985447;28;20030;-84
2023/04/25 07:59:01;;;;;;;9.20;2.83;;;;;;;7.91;100.00;-18241.16;5000541;28;20046;-83
2023/04/25 08:01:26;;;;;;;11.07;2.88;;;;;;;8.01;100.00;-18243.78;4993462;28;20038;-84
2023/04/25 08:03:52;;;;;;;13.98;3.40;;;;;;;7.90;100.00;-18240.75;4971670;28;20131;-84
2023/04/25 08:06:18;;;;;;;8.05;2.40;;;;;;;7.99;100.00;-18243.09;4967667;28;20103;-83
2023/04/25 08:08:43;;;;;;;9.68;3.03;;;;;;;7.98;100.00;-18242.94;4970205;28;20038;-84
2023/04/25 08:11:09;;;;;;;10.80;2.50;;;;;;;7.86;100.00;-18239.78;4970962;28;20043;-84
2023/04/25 08:13:34;;;;;;;12.13;2.80;;;;;;;7.98;100.00;-18242.81;4971608;28;20058;-84
2023/04/25 08:15:59;;;;;;;8.52;2.88;;;;;;;8.04;100.00;-18244.59;4970511;28;20039;-84
2023/04/25 08:18:25;;;;;;;8.80;2.65;;;;;;;8.05;100.00;-18244.75;4969994;28;20134;-84
2023/04/25 08:20:50;;;;;;;9.90;2.47;;;;;;;7.87;100.00;-18240.06;4971273;28;20045;-84
2023/04/25 08:23:16;;;;;;;9.82;3.08;;;;;;;7.97;100.00;-18242.53;4970322;28;20082;-85
2023/04/25 08:25:41;;;;;;;12.43;2.80;;;;;;;8.06;100.00;-18245.16;4971157;28;20126;-84
2023/04/25 08:28:06;;;;;;;10.40;2.42;;;;;;;8.10;100.00;-18246.13;4967732;28;20474;-84
2023/04/25 08:30:32;;;;;;;9.55;2.63;;;;;;;8.11;100.00;-18246.38;4969363;28;20042;-84
2023/04/25 08:32:57;;;;;;;10.00;2.20;;;;;;;8.20;100.00;-18248.88;4975650;28;20039;-84
2023/04/25 08:35:23;;;;;;;11.00;2.30;;;;;;;8.25;100.00;-18250.09;4973230;28;20093;-84
2023/04/25 08:37:49;;;;;;;8.20;2.00;;;;;;;8.27;100.00;-18250.78;4970004;28;20483;-84
2023/04/25 08:40:15;;;;;;;7.32;2.28;;;;;;;8.49;100.00;-18256.59;4969213;28;20127;-84
2023/04/25 08:42:45;;;;;;;8.75;2.10;;;;;;;8.32;100.00;-18252.19;4989439;28;20039;-85
2023/04/25 08:45:11;;;;;;;7.90;2.30;;;;;;;8.30;100.00;-18251.63;4969363;28;20046;-84
2023/04/25 08:47:38;;;;;;;9.80;2.50;;;;;;;8.22;100.00;-18249.41;4982955;28;20121;-84
2023/04/25 08:50:05;;;;;;;10.10;2.88;;;;;;;8.19;100.00;-18248.47;4961433;28;20046;-84
2023/04/25 08:52:37;;;;;;;7.45;2.20;;;;;;;8.30;100.00;-18251.63;4968320;28;20384;-84
2023/04/25 08:55:04;;;;;;;10.98;2.33;;;;;;;8.17;100.00;-18248.03;4963976;28;20042;-83
2023/04/25 08:57:31;;;;;;;9.57;2.38;;;;;;;8.18;100.00;-18248.31;4972443;28;20133;-84
2023/04/25 08:59:57;;;;;;;8.57;1.75;;;;;;;8.09;100.00;-18245.97;4976556;28;20094;-84
2023/04/25 09:02:24;;;;;;;8.52;2.55;;;;;;;7.99;100.00;-18243.09;4975167;28;20549;-84
2023/04/25 09:04:50;;;;;;;11.52;2.55;;;;;;;7.94;100.00;-18241.72;4986563;28;20039;-85
2023/04/25 09:07:18;;;;;;;9.60;2.33;;;;;;;7.89;100.00;-18240.47;4981286;28;20041;-85
2023/04/25 09:09:44;;;;;;;14.07;2.63;;;;;;;8.00;100.00;-18243.50;4974952;28;22551;-84
2023/04/25 09:12:09;;;;;;;9.07;2.70;;;;;;;8.20;100.00;-18248.88;4976493;28;20102;-84
2023/04/25 09:14:35;;;;;;;9.30;2.20;;;;;;;8.25;100.00;-18250.09;4974926;28;20046;-84
2023/04/25 09:17:04;;;;;;;7.70;2.10;;;;;;;8.22;100.00;-18249.41;4989359;28;20039;-84
2023/04/25 09:19:35;;;;;;;8.35;2.05;;;;;;;8.40;100.00;-18254.09;4971465;28;20060;-84
2023/04/25 09:22:04;;;;;;;8.10;2.67;;;;;;;8.51;100.00;-18257.28;4988667;28;20049;-84
2023/04/25 09:24:37;;;;;;;9.67;2.40;;;;;;;8.50;100.00;-18256.88;4978007;28;20062;-84
2023/04/25 09:27:06;;;;;;;8.98;2.45;;;;;;;8.43;100.00;-18255.06;4976955;28;20043;-84
2023/04/25 09:29:37;;;;;;;6.68;2.00;;;;;;;8.36;100.00;-18253.13;4975188;28;20054;-84
2023/04/25 09:32:20;;;;;;;7.55;2.03;;;;;;;8.39;100.00;-18253.97;4975027;28;20043;-84
2023/04/25 09:34:56;;;;;;;6.10;2.08;;;;;;;8.43;100.00;-18254.94;4977519;28;21085;-84
2023/04/25 09:37:27;;;;;;;5.00;1.63;;;;;;;8.34;100.00;-18252.72;4977878;28;20513;-84
2023/04/25 09:40:07;;;;;;;5.20;1.50;;;;;;;8.26;100.00;-18250.53;4977796;28;20133;-84
2023/04/25 09:42:34;;;;;;;10.25;1.65;;;;;;;8.32;100.00;-18252.19;4984056;28;20051;-84
2023/04/25 09:45:02;;;;;;;5.32;1.30;;;;;;;8.43;100.00;-18254.94;4971618;28;20426;-84
2023/04/25 09:47:28;;;;;;;6.72;1.55;;;;;;;8.46;100.00;-18255.91;4989986;28;20041;-84
2023/04/25 09:49:54;;;;;;;7.25;1.23;;;;;;;8.32;100.00;-18252.19;4972360;28;20182;-83
2023/04/25 09:52:24;;;;;;;4.88;1.30;;;;;;;8.38;100.00;-18253.69;4971051;28;20038;-84
2023/04/25 09:54:51;;;;;;;5.35;1.30;;;;;;;8.49;100.00;-18256.59;4974118;28;20545;-84
2023/04/25 09:57:16;;;;;;;6.53;1.20;;;;;;;8.50;100.00;-18257.00;4976304;28;20058;-84
2023/04/25 09:59:47;;;;;;;7.85;1.33;;;;;;;8.56;100.00;-18258.66;4968556;28;20039;-85
2023/04/25 10:02:15;;;;;;;6.43;1.40;;;;;;;8.56;100.00;-18258.66;4974941;28;20541;-84
2023/04/25 10:04:42;;;;;;;7.15;1.67;;;;;;;8.65;100.00;-18261.00;4971130;28;20067;-84
2023/04/25 10:07:09;;;;;;;7.72;2.13;;;;;;;8.60;100.00;-18259.63;4975532;28;20262;-84
2023/04/25 10:09:37;;;;;;;4.43;1.30;;;;;;;8.63;100.00;-18260.44;4971495;28;20050;-85
2023/04/25 10:12:03;;;;;;;5.63;1.65;;;;;;;8.54;100.00;-18258.09;4967132;28;20542;-84
2023/04/25 10:14:32;;;;;;;7.43;1.38;;;;;;;8.43;100.00;-18254.94;4987557;28;20050;-85
2023/04/25 10:16:58;;;;;;;5.82;1.80;;;;;;;8.58;100.00;-18259.06;4973909;28;20047;-84
2023/04/25 10:19:24;;;;;;;9.13;1.63;;;;;;;8.73;100.00;-18263.19;4972107;28;23364;-84
2023/04/25 10:21:54;;;;;;;6.13;1.33;;;;;;;9.08;100.00;-18272.53;4971668;28;20039;-84
2023/04/25 10:24:19;;;;;;;5.30;1.48;;;;;;;9.14;100.00;-18274.06;4987909;28;20038;-84
2023/04/25 10:26:46;;;;;;;5.43;1.75;;;;;;;9.41;100.00;-18281.34;4987067;28;20042;-84
2023/04/25 10:29:12;;;;;;;3.38;1.00;;;;;;;9.47;100.00;-18283.00;4975777;28;20042;-84
2023/04/25 10:31:49;;;;;;;7.45;1.42;;;;;;;9.29;100.00;-18278.06;4970251;28;20525;-84
2023/04/25 10:34:16;;;;;;;7.65;1.70;;;;;;;9.18;100.00;-18275.16;4970204;28;20050;-84
2023/04/25 10:36:41;;;;;;;8.00;1.95;;;;;;;9.45;100.00;-18282.59;4970204;28;20045;-86
2023/04/25 10:39:08;;;;;;;7.97;1.58;;;;;;;9.28;100.00;-18277.91;4987942;28;20047;-85
2023/04/25 10:41:55;;;;;;;5.68;1.73;;;;;;;9.05;100.00;-18271.72;4977426;28;20116;-84
2023/04/25 10:44:20;;;;;;;4.78;1.17;;;;;;;9.01;100.00;-18270.63;4976175;28;20035;-83
2023/04/25 10:46:45;;;;;;;3.05;0.80;;;;;;;8.58;100.00;-18259.19;4986714;28;20043;-84
2023/04/25 10:49:29;;;;;;;5.68;1.00;;;;;;;8.52;100.00;-18257.41;4987212;28;20043;-84
2023/04/25 10:52:11;;;;;;;5.30;1.20;;;;;;;8.24;100.00;-18249.84;4970128;28;21425;-84
2023/04/25 10:55:00;;;;;;;4.95;1.30;;;;;;;8.27;100.00;-18250.66;4968425;28;20715;-84
2023/04/25 10:57:37;;;;;;;4.40;1.40;;;;;;;8.14;100.00;-18247.22;4968678;28;20049;-84
2023/04/25 11:00:05;;;;;;;7.78;3.50;;;;;;;8.07;100.00;-18245.28;4968727;28;20046;-84
2023/04/25 11:02:31;;;;;;;5.60;1.50;;;;;;;7.97;100.00;-18242.53;4970832;28;20043;-84
2023/04/25 11:04:56;;;;;;;2.90;1.00;;;;;;;7.90;100.00;-18240.75;4971548;28;20053;-84
2023/04/25 11:07:48;;;;;;;3.25;0.95;;;;;;;7.91;100.00;-18241.03;4969405;28;20447;-84
2023/04/25 11:10:14;;;;;;;5.20;1.05;;;;;;;8.04;100.00;-18244.47;4968595;28;20062;-85
2023/04/25 11:12:40;;;;;;;1.83;1.08;;;;;;;8.12;100.00;-18246.66;4971500;28;20113;-84
2023/04/25 11:15:07;;;;;;;4.93;1.42;;;;;;;8.21;100.00;-18249.16;4969938;28;20094;-84